Terminal Aerodrome Forecast
Issued by NWS Amarillo, TX

Home | Current Version | Previous Version | Text Only | Print | Product List | Glossary On
Versions: 1 2 3 4 5 6 7 8 9 10 11 12 13 14 15 16 17
000
FTUS44 KAMA 300700 AAA
TAFDHT
TAF AMD
KDHT 300726Z 3007/3106 06008KT P6SM VCTS SCT070CB BKN200
     FM301000 02006KT P6SM SCT020 OVC070
     FM301600 06010KT P6SM SCT070 BKN200
     FM310100 15008KT P6SM OVC040=

USA.gov is the U.S. government's official web portal to all federal, state and local government web resources and services.